createdAt,value
2018-08-08T05:44:41.935Z,24.50
2018-08-08T05:47:09.455Z,24.90
2018-08-08T05:49:37.063Z,24.90
2018-08-08T05:52:04.623Z,24.80
2018-08-08T05:54:32.114Z,24.80
2018-08-08T05:56:59.658Z,24.90
2018-08-08T05:59:27.132Z,24.90
2018-08-08T06:01:54.647Z,24.90
2018-08-08T06:04:22.171Z,24.90
2018-08-08T06:06:49.679Z,24.80
2018-08-08T06:09:17.234Z,24.80
2018-08-08T06:11:44.719Z,24.80
2018-08-08T06:14:12.228Z,24.80
2018-08-08T06:16:39.795Z,24.80
2018-08-08T06:19:07.316Z,24.90
2018-08-08T06:21:34.807Z,24.80
2018-08-08T06:24:02.366Z,24.80
2018-08-08T06:26:29.871Z,24.80
2018-08-08T06:28:57.341Z,24.80
2018-08-08T06:31:25.155Z,24.80
2018-08-08T06:33:52.970Z,24.90
2018-08-08T06:36:21.117Z,25.00
2018-08-08T06:38:48.607Z,24.90
2018-08-08T06:41:16.097Z,25.10
2018-08-08T06:43:44.628Z,25.10
2018-08-08T06:46:13.537Z,25.10
2018-08-08T06:48:41.045Z,25.10
2018-08-08T06:51:08.627Z,25.20
2018-08-08T06:53:36.156Z,25.20
2018-08-08T06:56:03.672Z,25.20
2018-08-08T06:58:31.301Z,25.40
2018-08-08T07:00:58.935Z,25.40
2018-08-08T07:03:26.416Z,25.30
2018-08-08T07:05:53.949Z,25.30
2018-08-08T07:08:21.435Z,25.50
2018-08-08T07:10:48.899Z,25.50
2018-08-08T07:13:16.358Z,25.60
2018-08-08T07:15:43.884Z,25.60
2018-08-08T07:18:11.400Z,25.60
2018-08-08T07:20:38.912Z,25.70
2018-08-08T07:23:06.598Z,25.80
2018-08-08T07:25:34.085Z,25.90
2018-08-08T07:28:01.640Z,25.90
2018-08-08T07:30:29.104Z,25.90
2018-08-08T07:32:56.579Z,26.10
2018-08-08T07:35:24.051Z,26.10
2018-08-08T07:37:51.663Z,26.10
2018-08-08T07:40:19.614Z,26.30
2018-08-08T07:42:47.099Z,26.50
2018-08-08T07:45:24.559Z,26.70
2018-08-08T07:47:52.171Z,26.70
2018-08-08T07:50:19.750Z,26.80
2018-08-08T07:52:47.272Z,26.90
2018-08-08T07:55:15.899Z,26.90
2018-08-08T07:57:43.687Z,26.80
2018-08-08T08:00:14.602Z,26.80
2018-08-08T08:02:42.157Z,26.70
2018-08-08T08:05:09.763Z,26.40
2018-08-08T08:07:37.255Z,26.40
2018-08-08T08:10:04.989Z,26.30
2018-08-08T08:12:32.611Z,26.40
2018-08-08T08:15:00.059Z,26.40
2018-08-08T08:17:27.559Z,26.30
2018-08-08T08:19:55.071Z,26.40
2018-08-08T08:22:22.522Z,26.50
2018-08-08T08:24:50.016Z,26.90
2018-08-08T08:27:17.482Z,27.30
2018-08-08T08:29:44.963Z,27.60
2018-08-08T08:32:12.432Z,27.90
2018-08-08T08:34:39.915Z,27.90
2018-08-08T08:37:07.378Z,28.10
2018-08-08T08:39:34.931Z,28.20
2018-08-08T08:42:02.397Z,28.40
2018-08-08T08:44:29.875Z,28.20
2018-08-08T08:46:57.388Z,28.30
2018-08-08T08:49:24.928Z,28.50
2018-08-08T08:51:52.526Z,28.60
2018-08-08T08:54:20.092Z,28.20
2018-08-08T08:56:47.584Z,28.30
2018-08-08T08:59:15.124Z,28.70
2018-08-08T09:01:42.742Z,28.80
2018-08-08T09:04:10.172Z,29.10
2018-08-08T09:06:37.787Z,29.10
2018-08-08T09:09:07.935Z,29.20
2018-08-08T09:11:35.595Z,29.20
2018-08-08T09:14:03.187Z,29.20
2018-08-08T09:16:30.645Z,29.40
2018-08-08T09:18:58.115Z,29.50
2018-08-08T09:21:25.594Z,29.40
2018-08-08T09:23:53.075Z,29.50
2018-08-08T09:26:22.780Z,29.40
2018-08-08T09:28:50.279Z,29.50
2018-08-08T09:31:17.715Z,29.70
2018-08-08T09:33:45.154Z,29.90
2018-08-08T09:36:12.628Z,29.80
2018-08-08T09:38:40.071Z,30.00
2018-08-08T09:41:07.589Z,30.10
2018-08-08T09:43:35.073Z,30.40
2018-08-08T09:46:02.558Z,30.30
2018-08-08T09:48:30.065Z,30.60
2018-08-08T09:50:57.512Z,30.70
2018-08-08T09:53:25.003Z,30.80
2018-08-08T09:55:52.461Z,30.70
2018-08-08T09:58:19.967Z,30.80
2018-08-08T10:00:52.970Z,30.90
2018-08-08T10:03:26.236Z,30.90
2018-08-08T10:05:53.685Z,31.10
2018-08-08T10:08:21.127Z,31.20
2018-08-08T10:10:48.582Z,31.20
2018-08-08T10:13:16.038Z,31.50
2018-08-08T10:15:43.451Z,31.70
2018-08-08T10:18:10.995Z,31.50
2018-08-08T10:20:38.445Z,31.80
2018-08-08T10:23:05.876Z,31.70
2018-08-08T10:25:33.594Z,31.90
2018-08-08T10:28:01.010Z,32.00
2018-08-08T10:30:28.435Z,31.80
2018-08-08T10:32:55.911Z,32.00
2018-08-08T10:35:23.377Z,31.90
2018-08-08T10:37:50.871Z,31.90
2018-08-08T10:40:18.394Z,31.90
2018-08-08T10:42:45.935Z,32.00
2018-08-08T10:45:13.396Z,31.90
2018-08-08T10:47:40.870Z,32.10
2018-08-08T10:50:08.332Z,32.10
2018-08-08T10:52:35.836Z,32.20
2018-08-08T10:55:04.344Z,31.90
2018-08-08T10:57:31.803Z,31.90
2018-08-08T10:59:59.263Z,31.80
2018-08-08T11:02:26.772Z,32.10
2018-08-08T11:04:54.242Z,32.00
2018-08-08T11:07:21.720Z,32.20
2018-08-08T11:09:49.176Z,31.90
2018-08-08T11:12:16.627Z,32.20
2018-08-08T11:14:44.103Z,32.30
2018-08-08T11:17:11.565Z,32.40
2018-08-08T11:19:39.074Z,32.40
2018-08-08T11:22:06.606Z,32.60
2018-08-08T11:24:34.067Z,32.30
2018-08-08T11:27:01.585Z,32.30
2018-08-08T11:29:29.426Z,32.50
2018-08-08T11:31:56.942Z,32.60
2018-08-08T11:34:24.411Z,32.30
2018-08-08T11:36:51.945Z,32.60
2018-08-08T11:39:19.365Z,32.50
2018-08-08T11:41:46.867Z,32.20
2018-08-08T11:44:15.616Z,32.70
2018-08-08T11:46:44.760Z,33.00
2018-08-08T11:49:12.355Z,33.30
2018-08-08T11:51:40.287Z,33.60
2018-08-08T11:54:09.345Z,34.20
2018-08-08T11:56:38.036Z,35.20
2018-08-08T11:59:06.462Z,35.80
2018-08-08T12:01:33.932Z,34.70
2018-08-08T12:04:01.427Z,34.20
2018-08-08T12:06:28.864Z,34.70
2018-08-08T12:08:56.364Z,35.70
2018-08-08T12:11:23.814Z,37.00
2018-08-08T12:13:51.252Z,38.30
2018-08-08T12:16:18.736Z,38.60
2018-08-08T12:18:46.191Z,38.80
2018-08-08T12:21:13.635Z,38.90
2018-08-08T12:23:41.220Z,39.00
2018-08-08T12:26:08.712Z,38.70
2018-08-08T12:28:36.280Z,37.70
2018-08-08T12:31:03.702Z,37.90
2018-08-08T12:33:31.276Z,37.50
2018-08-08T12:35:58.731Z,37.30
2018-08-08T12:38:26.195Z,36.90
2018-08-08T12:40:53.655Z,37.00
2018-08-08T12:43:21.144Z,37.00
2018-08-08T12:45:48.623Z,37.40
2018-08-08T12:48:16.072Z,37.90
2018-08-08T12:50:43.738Z,37.90
2018-08-08T12:53:11.365Z,37.40
2018-08-08T12:55:39.405Z,37.60
2018-08-08T12:58:07.165Z,37.70
2018-08-08T13:00:34.688Z,37.20
2018-08-08T13:03:02.910Z,37.70
2018-08-08T13:05:30.638Z,37.30
2018-08-08T13:07:58.109Z,37.10
2018-08-08T13:10:25.555Z,37.10
2018-08-08T13:12:52.982Z,36.50
2018-08-08T13:15:20.435Z,36.10
2018-08-08T13:17:47.932Z,36.40
2018-08-08T13:20:15.446Z,37.10
2018-08-08T13:22:42.981Z,37.30
2018-08-08T13:25:10.467Z,37.80
2018-08-08T13:27:37.895Z,37.70
2018-08-08T13:30:06.179Z,37.90
2018-08-08T13:32:33.664Z,37.90
2018-08-08T13:35:01.076Z,37.60
2018-08-08T13:37:28.524Z,36.80
2018-08-08T13:39:57.228Z,36.70
2018-08-08T13:42:24.687Z,35.70
2018-08-08T13:44:52.165Z,35.50
2018-08-08T13:47:19.647Z,35.80
2018-08-08T13:49:47.087Z,35.00
2018-08-08T13:52:14.539Z,34.90
2018-08-08T13:54:41.984Z,35.30
2018-08-08T13:57:09.460Z,35.20
2018-08-08T13:59:36.967Z,34.60
2018-08-08T14:02:04.434Z,35.20
2018-08-08T14:04:31.909Z,35.00
2018-08-08T14:06:59.355Z,35.50
2018-08-08T14:09:26.779Z,35.50
2018-08-08T14:11:54.246Z,35.10
2018-08-08T14:31:41.743Z,35.00
2018-08-08T14:34:09.203Z,34.90
2018-08-08T14:53:57.499Z,33.80
2018-08-08T14:56:26.955Z,33.60
2018-08-08T14:58:54.420Z,33.40
2018-08-08T15:01:21.889Z,33.30
2018-08-08T15:03:50.099Z,33.10
2018-08-08T15:06:17.670Z,32.80
2018-08-08T15:08:45.147Z,32.70
2018-08-08T15:11:12.969Z,32.40
2018-08-08T15:13:40.398Z,32.20
2018-08-08T15:16:07.847Z,32.10
2018-08-08T15:18:35.284Z,32.00
2018-08-08T15:21:02.779Z,31.90
2018-08-08T15:23:30.295Z,31.70
2018-08-08T15:25:57.799Z,31.50
2018-08-08T15:28:25.291Z,31.50
2018-08-08T15:30:52.763Z,31.30
2018-08-08T15:33:20.198Z,31.30
2018-08-08T15:35:47.631Z,31.30
2018-08-08T15:38:15.100Z,31.10
2018-08-08T15:40:42.548Z,31.20
2018-08-08T15:43:10.088Z,31.00
2018-08-08T15:45:37.521Z,31.10
2018-08-08T15:48:05.158Z,31.20
2018-08-08T16:07:50.471Z,30.80
2018-08-08T16:10:17.915Z,30.90
2018-08-08T16:12:45.415Z,30.80
2018-08-08T16:15:12.928Z,30.70
2018-08-08T16:17:40.393Z,30.60
2018-08-08T16:20:07.903Z,30.40
2018-08-08T16:39:54.250Z,30.30
2018-08-08T16:42:21.703Z,30.30
2018-08-08T16:44:49.151Z,30.20
2018-08-08T16:47:16.694Z,30.20
2018-08-08T16:49:44.135Z,30.20
2018-08-08T16:52:11.631Z,30.20
2018-08-08T17:11:56.739Z,30.30
2018-08-08T17:14:24.210Z,29.80
2018-08-08T17:16:51.660Z,30.10
2018-08-08T17:19:19.148Z,30.20
2018-08-08T17:21:47.035Z,30.10
2018-08-08T17:24:14.475Z,30.30
2018-08-08T17:26:41.974Z,30.20
2018-08-08T17:29:09.616Z,30.20
2018-08-08T17:31:37.072Z,30.20
2018-08-08T17:34:04.698Z,30.00
2018-08-08T17:36:32.188Z,29.80
2018-08-08T17:56:17.962Z,29.20
2018-08-08T17:58:45.440Z,29.20
2018-08-08T18:01:12.942Z,29.10
2018-08-08T18:03:40.418Z,29.10
2018-08-08T18:06:07.900Z,29.00
2018-08-08T18:08:35.343Z,29.00
2018-08-08T18:11:02.888Z,28.90
2018-08-08T18:13:30.427Z,28.80
2018-08-08T18:15:57.951Z,28.70
2018-08-08T18:18:25.471Z,28.70
2018-08-08T18:20:52.963Z,28.60
2018-08-08T18:23:20.506Z,28.60
2018-08-08T18:25:47.973Z,28.50
2018-08-08T18:28:15.421Z,28.50
2018-08-08T18:30:42.880Z,28.40
2018-08-08T18:33:10.395Z,28.30
2018-08-08T18:35:37.908Z,28.20
2018-08-08T18:38:05.698Z,27.90
2018-08-08T18:40:33.721Z,28.10
2018-08-08T18:43:01.669Z,28.20
2018-08-08T18:45:29.271Z,28.10
2018-08-08T18:47:56.740Z,28.20
2018-08-08T18:50:25.990Z,28.10
2018-08-08T18:52:54.675Z,28.00
2018-08-08T19:12:40.327Z,27.60
2018-08-08T19:15:07.856Z,27.50
2018-08-08T19:17:35.805Z,27.40
2018-08-08T19:20:03.926Z,27.40
2018-08-08T19:22:31.411Z,27.40
2018-08-08T19:24:58.910Z,27.40
2018-08-08T19:27:26.369Z,27.40
2018-08-08T19:29:53.843Z,27.30
2018-08-08T19:32:21.751Z,27.50
2018-08-08T19:34:49.295Z,27.30
2018-08-08T19:37:16.803Z,27.40
2018-08-08T19:39:44.496Z,27.20
2018-08-08T19:42:12.433Z,27.30
2018-08-08T19:44:39.939Z,27.10
2018-08-08T19:55:48.169Z,27.00
2018-08-08T19:58:16.755Z,27.10
2018-08-08T20:00:45.169Z,27.10
2018-08-08T20:03:28.926Z,27.10
2018-08-08T20:05:57.233Z,27.20
2018-08-08T20:08:27.960Z,27.10
2018-08-08T20:10:57.526Z,27.10
2018-08-08T20:13:25.016Z,27.10
2018-08-08T20:15:55.605Z,27.10
2018-08-08T20:18:24.055Z,27.00
2018-08-08T20:20:54.970Z,27.00
2018-08-08T20:23:23.223Z,27.00
2018-08-08T20:25:51.663Z,27.00
2018-08-08T20:28:20.812Z,27.00
2018-08-08T20:30:49.564Z,26.90
2018-08-08T20:33:22.694Z,26.90
2018-08-08T20:35:50.291Z,26.90
2018-08-08T20:38:18.068Z,26.80
2018-08-08T20:40:45.506Z,26.70
2018-08-08T20:43:13.032Z,26.70
2018-08-08T20:45:40.675Z,26.70
2018-08-08T20:48:08.228Z,26.50
2018-08-08T20:50:35.782Z,26.60
2018-08-08T20:53:03.329Z,26.50
2018-08-08T20:55:30.822Z,26.40
2018-08-08T20:57:58.375Z,26.50
2018-08-08T21:00:25.938Z,26.50
2018-08-08T21:02:53.428Z,26.40
2018-08-08T21:05:21.421Z,26.40
2018-08-08T21:07:48.899Z,26.40
2018-08-08T21:10:16.482Z,26.50
2018-08-08T21:12:44.473Z,26.50
2018-08-08T21:15:12.232Z,26.50
2018-08-08T21:17:39.794Z,26.50
2018-08-08T21:20:07.362Z,26.30
2018-08-08T21:22:35.644Z,26.50
2018-08-08T21:25:03.349Z,26.40
2018-08-08T21:27:31.608Z,26.40
2018-08-08T21:29:59.673Z,26.20
2018-08-08T21:32:27.226Z,26.30
2018-08-08T21:34:55.189Z,25.90
2018-08-08T21:37:23.984Z,26.30
2018-08-08T21:39:51.731Z,26.30
2018-08-08T21:42:19.239Z,26.20
2018-08-08T21:44:47.582Z,26.30
2018-08-08T21:47:15.774Z,26.10
2018-08-08T21:49:43.735Z,25.90
2018-08-08T21:52:11.788Z,25.90
2018-08-08T21:54:51.025Z,25.80
2018-08-08T21:57:30.114Z,25.70
2018-08-08T22:00:09.360Z,25.50
2018-08-08T22:02:48.419Z,25.70
2018-08-08T22:05:27.488Z,25.50
2018-08-08T22:08:06.422Z,25.50
2018-08-08T22:10:45.335Z,25.50
2018-08-08T22:13:24.312Z,25.50
2018-08-08T22:16:03.331Z,25.40
2018-08-08T22:18:42.095Z,25.40
2018-08-08T22:21:09.616Z,25.40
2018-08-08T22:23:37.083Z,25.30
2018-08-08T22:26:05.084Z,25.30
2018-08-08T22:28:32.578Z,25.20
2018-08-08T22:31:00.062Z,25.20
2018-08-08T22:33:27.495Z,25.30
2018-08-08T22:35:54.986Z,25.40
2018-08-08T22:38:22.506Z,25.40
2018-08-08T22:40:49.959Z,25.40
2018-08-08T22:43:17.423Z,25.40
2018-08-08T22:45:44.895Z,25.30
2018-08-08T22:48:12.336Z,25.30
2018-08-08T22:50:39.803Z,25.30
2018-08-08T22:53:07.244Z,25.20
2018-08-08T22:55:34.687Z,25.20
2018-08-08T22:58:02.169Z,25.20
2018-08-08T23:00:29.645Z,25.10
2018-08-08T23:02:57.068Z,25.20
2018-08-08T23:05:24.601Z,25.20
2018-08-08T23:07:52.065Z,25.30
2018-08-08T23:10:19.507Z,25.30
2018-08-08T23:12:46.990Z,25.20
2018-08-08T23:15:14.453Z,25.10
2018-08-08T23:17:41.912Z,25.00
2018-08-08T23:20:10.091Z,25.00
2018-08-08T23:22:49.652Z,24.80
2018-08-08T23:25:17.344Z,24.80
2018-08-08T23:27:45.007Z,24.60
2018-08-08T23:30:12.483Z,24.70
2018-08-08T23:32:40.044Z,24.70
2018-08-08T23:35:07.488Z,24.60
2018-08-08T23:37:34.951Z,24.50
2018-08-08T23:40:06.999Z,24.50
2018-08-08T23:42:34.535Z,24.60
2018-08-08T23:45:02.058Z,24.60
2018-08-08T23:47:29.916Z,24.50
2018-08-08T23:49:57.358Z,24.60
2018-08-08T23:52:24.855Z,24.50
2018-08-08T23:54:52.471Z,24.50
2018-08-08T23:57:20.035Z,24.50
2018-08-08T23:59:47.471Z,24.40
